sensor_id;sensor_type;location;lat;lon;timestamp;temperature;humidity
6008;DHT22;3032;49.484;11.112;2022-08-21T00:00:59;19.20;99.90
6008;DHT22;3032;49.484;11.112;2022-08-21T00:03:27;19.20;99.90
6008;DHT22;3032;49.484;11.112;2022-08-21T00:05:53;19.30;99.90
6008;DHT22;3032;49.484;11.112;2022-08-21T00:08:19;19.40;99.90
6008;DHT22;3032;49.484;11.112;2022-08-21T00:10:46;19.40;99.90
6008;DHT22;3032;49.484;11.112;2022-08-21T00:13:12;19.40;99.90
6008;DHT22;3032;49.484;11.112;2022-08-21T00:15:39;19.40;99.90
6008;DHT22;3032;49.484;11.112;2022-08-21T00:18:06;19.40;99.90
6008;DHT22;3032;49.484;11.112;2022-08-21T00:20:33;19.20;99.90
6008;DHT22;3032;49.484;11.112;2022-08-21T00:22:59;19.00;99.90
6008;DHT22;3032;49.484;11.112;2022-08-21T00:25:25;18.90;99.90
6008;DHT22;3032;49.484;11.112;2022-08-21T00:27:51;18.50;99.90
6008;DHT22;3032;49.484;11.112;2022-08-21T00:30:17;18.30;99.90
6008;DHT22;3032;49.484;11.112;2022-08-21T00:32:44;18.70;99.90
6008;DHT22;3032;49.484;11.112;2022-08-21T00:35:17;18.50;99.90
6008;DHT22;3032;49.484;11.112;2022-08-21T00:37:43;18.60;99.90
6008;DHT22;3032;49.484;11.112;2022-08-21T00:40:16;18.60;99.90
6008;DHT22;3032;49.484;11.112;2022-08-21T00:42:42;18.50;99.90
6008;DHT22;3032;49.484;11.112;2022-08-21T00:45:09;18.30;99.90
6008;DHT22;3032;49.484;11.112;2022-08-21T00:47:35;18.30;99.90
6008;DHT22;3032;49.484;11.112;2022-08-21T00:50:01;18.20;99.90
6008;DHT22;3032;49.484;11.112;2022-08-21T00:52:30;18.10;99.90
6008;DHT22;3032;49.484;11.112;2022-08-21T00:54:57;18.00;99.90
6008;DHT22;3032;49.484;11.112;2022-08-21T00:57:30;17.70;99.90
6008;DHT22;3032;49.484;11.112;2022-08-21T00:59:58;17.60;99.90
6008;DHT22;3032;49.484;11.112;2022-08-21T01:02:25;17.50;99.90
6008;DHT22;3032;49.484;11.112;2022-08-21T01:04:51;17.60;99.90
6008;DHT22;3032;49.484;11.112;2022-08-21T01:07:16;17.50;99.90
6008;DHT22;3032;49.484;11.112;2022-08-21T01:09:43;17.70;99.90
6008;DHT22;3032;49.484;11.112;2022-08-21T01:12:09;17.70;99.90
6008;DHT22;3032;49.484;11.112;2022-08-21T01:14:35;18.00;99.90
6008;DHT22;3032;49.484;11.112;2022-08-21T01:17:02;18.10;99.90
6008;DHT22;3032;49.484;11.112;2022-08-21T01:19:29;18.30;99.90
6008;DHT22;3032;49.484;11.112;2022-08-21T01:21:55;18.30;99.90
6008;DHT22;3032;49.484;11.112;2022-08-21T01:24:21;18.40;99.90
6008;DHT22;3032;49.484;11.112;2022-08-21T01:26:48;18.60;99.90
6008;DHT22;3032;49.484;11.112;2022-08-21T01:29:34;18.80;99.90
6008;DHT22;3032;49.484;11.112;2022-08-21T01:32:10;18.70;99.90
6008;DHT22;3032;49.484;11.112;2022-08-21T01:34:38;18.10;99.90
6008;DHT22;3032;49.484;11.112;2022-08-21T01:37:05;18.30;99.90
6008;DHT22;3032;49.484;11.112;2022-08-21T01:39:31;18.30;99.90
6008;DHT22;3032;49.484;11.112;2022-08-21T01:41:57;18.50;99.90
6008;DHT22;3032;49.484;11.112;2022-08-21T01:44:23;18.40;99.90
6008;DHT22;3032;49.484;11.112;2022-08-21T01:46:49;18.30;99.90
6008;DHT22;3032;49.484;11.112;2022-08-21T01:49:15;18.30;99.90
6008;DHT22;3032;49.484;11.112;2022-08-21T01:51:41;18.60;99.90
6008;DHT22;3032;49.484;11.112;2022-08-21T01:54:07;18.60;99.90
6008;DHT22;3032;49.484;11.112;2022-08-21T01:56:39;18.30;99.90
6008;DHT22;3032;49.484;11.112;2022-08-21T01:59:05;18.10;99.90
6008;DHT22;3032;49.484;11.112;2022-08-21T02:01:31;17.80;99.90
6008;DHT22;3032;49.484;11.112;2022-08-21T02:03:56;18.20;99.90
6008;DHT22;3032;49.484;11.112;2022-08-21T02:06:22;18.00;99.90
6008;DHT22;3032;49.484;11.112;2022-08-21T02:08:48;18.20;99.90
6008;DHT22;3032;49.484;11.112;2022-08-21T02:11:15;18.20;99.90
6008;DHT22;3032;49.484;11.112;2022-08-21T02:13:41;17.90;99.90
6008;DHT22;3032;49.484;11.112;2022-08-21T02:16:07;18.00;99.90
6008;DHT22;3032;49.484;11.112;2022-08-21T02:18:33;18.10;99.90
6008;DHT22;3032;49.484;11.112;2022-08-21T02:20:59;17.90;99.90
6008;DHT22;3032;49.484;11.112;2022-08-21T02:23:24;18.30;99.90
6008;DHT22;3032;49.484;11.112;2022-08-21T02:25:50;18.10;99.90
6008;DHT22;3032;49.484;11.112;2022-08-21T02:28:16;17.70;99.90
6008;DHT22;3032;49.484;11.112;2022-08-21T02:30:44;17.90;99.90
6008;DHT22;3032;49.484;11.112;2022-08-21T02:33:11;18.20;99.90
6008;DHT22;3032;49.484;11.112;2022-08-21T02:35:38;18.50;99.90
6008;DHT22;3032;49.484;11.112;2022-08-21T02:38:07;18.50;99.90
6008;DHT22;3032;49.484;11.112;2022-08-21T02:40:38;18.60;99.90
6008;DHT22;3032;49.484;11.112;2022-08-21T02:43:05;19.10;99.90
6008;DHT22;3032;49.484;11.112;2022-08-21T02:45:31;18.80;99.90
6008;DHT22;3032;49.484;11.112;2022-08-21T02:48:00;18.90;99.90
6008;DHT22;3032;49.484;11.112;2022-08-21T02:50:29;19.00;99.90
6008;DHT22;3032;49.484;11.112;2022-08-21T02:52:56;18.80;99.90
6008;DHT22;3032;49.484;11.112;2022-08-21T02:55:27;18.90;99.90
6008;DHT22;3032;49.484;11.112;2022-08-21T02:57:54;19.10;99.90
6008;DHT22;3032;49.484;11.112;2022-08-21T03:00:21;19.00;99.90
6008;DHT22;3032;49.484;11.112;2022-08-21T03:02:48;19.00;99.90
6008;DHT22;3032;49.484;11.112;2022-08-21T03:05:15;19.10;99.90
6008;DHT22;3032;49.484;11.112;2022-08-21T03:07:42;19.20;99.90
6008;DHT22;3032;49.484;11.112;2022-08-21T03:10:08;19.20;99.90
6008;DHT22;3032;49.484;11.112;2022-08-21T03:12:34;19.10;99.90
6008;DHT22;3032;49.484;11.112;2022-08-21T03:15:05;19.20;99.90
6008;DHT22;3032;49.484;11.112;2022-08-21T03:17:32;19.20;99.90
6008;DHT22;3032;49.484;11.112;2022-08-21T03:19:58;19.10;99.90
6008;DHT22;3032;49.484;11.112;2022-08-21T03:22:23;19.00;99.90
6008;DHT22;3032;49.484;11.112;2022-08-21T03:24:49;19.00;99.90
6008;DHT22;3032;49.484;11.112;2022-08-21T03:27:15;19.00;99.90
6008;DHT22;3032;49.484;11.112;2022-08-21T03:29:40;18.90;99.90
6008;DHT22;3032;49.484;11.112;2022-08-21T03:32:06;18.90;99.90
6008;DHT22;3032;49.484;11.112;2022-08-21T03:34:35;18.70;99.90
6008;DHT22;3032;49.484;11.112;2022-08-21T03:37:01;18.70;99.90
6008;DHT22;3032;49.484;11.112;2022-08-21T03:39:27;18.60;99.90
6008;DHT22;3032;49.484;11.112;2022-08-21T03:41:52;18.70;99.90
6008;DHT22;3032;49.484;11.112;2022-08-21T03:44:19;18.70;99.90
6008;DHT22;3032;49.484;11.112;2022-08-21T03:46:45;18.70;99.90
6008;DHT22;3032;49.484;11.112;2022-08-21T03:49:10;18.70;99.90
6008;DHT22;3032;49.484;11.112;2022-08-21T03:51:36;18.60;99.90
6008;DHT22;3032;49.484;11.112;2022-08-21T03:54:03;18.60;99.90
6008;DHT22;3032;49.484;11.112;2022-08-21T03:56:28;18.40;99.90
6008;DHT22;3032;49.484;11.112;2022-08-21T03:58:54;18.30;99.90
6008;DHT22;3032;49.484;11.112;2022-08-21T04:01:20;18.20;99.90
6008;DHT22;3032;49.484;11.112;2022-08-21T04:03:45;18.10;99.90
6008;DHT22;3032;49.484;11.112;2022-08-21T04:06:11;18.10;99.90
6008;DHT22;3032;49.484;11.112;2022-08-21T04:08:37;18.00;99.90
6008;DHT22;3032;49.484;11.112;2022-08-21T04:11:03;18.00;99.90
6008;DHT22;3032;49.484;11.112;2022-08-21T04:13:30;18.10;99.90
6008;DHT22;3032;49.484;11.112;2022-08-21T04:15:56;18.40;99.90
6008;DHT22;3032;49.484;11.112;2022-08-21T04:18:23;18.30;99.90
6008;DHT22;3032;49.484;11.112;2022-08-21T04:20:51;18.40;99.90
6008;DHT22;3032;49.484;11.112;2022-08-21T04:23:21;18.50;99.90
6008;DHT22;3032;49.484;11.112;2022-08-21T04:25:47;18.50;99.90
6008;DHT22;3032;49.484;11.112;2022-08-21T04:28:13;18.60;99.90
6008;DHT22;3032;49.484;11.112;2022-08-21T04:30:38;18.30;99.90
6008;DHT22;3032;49.484;11.112;2022-08-21T04:33:04;18.40;99.90
6008;DHT22;3032;49.484;11.112;2022-08-21T04:35:31;18.60;99.90
6008;DHT22;3032;49.484;11.112;2022-08-21T04:37:57;18.60;99.90
6008;DHT22;3032;49.484;11.112;2022-08-21T04:40:25;18.80;99.90
6008;DHT22;3032;49.484;11.112;2022-08-21T04:42:56;18.90;99.90
6008;DHT22;3032;49.484;11.112;2022-08-21T04:45:29;19.00;99.90
6008;DHT22;3032;49.484;11.112;2022-08-21T04:47:58;19.00;99.90
6008;DHT22;3032;49.484;11.112;2022-08-21T04:53:24;19.00;99.90
6008;DHT22;3032;49.484;11.112;2022-08-21T04:55:51;19.20;99.90
6008;DHT22;3032;49.484;11.112;2022-08-21T04:58:20;19.30;99.90
6008;DHT22;3032;49.484;11.112;2022-08-21T05:00:47;19.40;99.90
6008;DHT22;3032;49.484;11.112;2022-08-21T05:03:14;19.30;99.90
6008;DHT22;3032;49.484;11.112;2022-08-21T05:05:40;19.30;99.90
6008;DHT22;3032;49.484;11.112;2022-08-21T05:08:07;19.40;99.90
6008;DHT22;3032;49.484;11.112;2022-08-21T05:10:34;19.40;99.90
6008;DHT22;3032;49.484;11.112;2022-08-21T05:13:01;19.50;99.90
6008;DHT22;3032;49.484;11.112;2022-08-21T05:15:26;19.50;99.90
6008;DHT22;3032;49.484;11.112;2022-08-21T05:17:52;19.50;99.90
6008;DHT22;3032;49.484;11.112;2022-08-21T05:20:18;19.30;99.90
6008;DHT22;3032;49.484;11.112;2022-08-21T05:22:45;19.40;99.90
6008;DHT22;3032;49.484;11.112;2022-08-21T05:25:10;19.50;99.90
6008;DHT22;3032;49.484;11.112;2022-08-21T05:27:37;19.50;99.90
6008;DHT22;3032;49.484;11.112;2022-08-21T05:30:05;19.50;99.90
6008;DHT22;3032;49.484;11.112;2022-08-21T05:32:32;19.60;99.90
6008;DHT22;3032;49.484;11.112;2022-08-21T05:34:58;19.70;99.90
6008;DHT22;3032;49.484;11.112;2022-08-21T05:37:24;19.70;99.90
6008;DHT22;3032;49.484;11.112;2022-08-21T05:39:49;19.80;99.90
6008;DHT22;3032;49.484;11.112;2022-08-21T05:42:15;19.90;99.90
6008;DHT22;3032;49.484;11.112;2022-08-21T05:44:41;20.20;99.90
6008;DHT22;3032;49.484;11.112;2022-08-21T05:47:10;20.10;99.90
6008;DHT22;3032;49.484;11.112;2022-08-21T05:49:36;20.10;99.90
6008;DHT22;3032;49.484;11.112;2022-08-21T05:52:03;20.20;99.90
6008;DHT22;3032;49.484;11.112;2022-08-21T05:54:29;20.20;99.90
6008;DHT22;3032;49.484;11.112;2022-08-21T05:56:55;20.40;99.90
6008;DHT22;3032;49.484;11.112;2022-08-21T05:59:20;20.40;99.90
6008;DHT22;3032;49.484;11.112;2022-08-21T06:01:46;20.50;99.90
6008;DHT22;3032;49.484;11.112;2022-08-21T06:04:12;20.40;99.90
6008;DHT22;3032;49.484;11.112;2022-08-21T06:06:38;20.00;99.90
6008;DHT22;3032;49.484;11.112;2022-08-21T06:09:04;19.40;99.90
6008;DHT22;3032;49.484;11.112;2022-08-21T06:11:31;19.40;99.90
6008;DHT22;3032;49.484;11.112;2022-08-21T06:13:57;19.20;99.90
6008;DHT22;3032;49.484;11.112;2022-08-21T06:16:26;19.30;99.90
6008;DHT22;3032;49.484;11.112;2022-08-21T06:18:52;19.00;99.90
6008;DHT22;3032;49.484;11.112;2022-08-21T06:21:18;19.20;99.90
6008;DHT22;3032;49.484;11.112;2022-08-21T06:23:43;19.20;99.90
6008;DHT22;3032;49.484;11.112;2022-08-21T06:26:11;19.30;99.90
6008;DHT22;3032;49.484;11.112;2022-08-21T06:28:37;19.60;99.90
6008;DHT22;3032;49.484;11.112;2022-08-21T06:31:14;19.50;99.90
6008;DHT22;3032;49.484;11.112;2022-08-21T06:33:40;19.80;99.90
6008;DHT22;3032;49.484;11.112;2022-08-21T06:36:05;20.00;99.90
6008;DHT22;3032;49.484;11.112;2022-08-21T06:38:31;20.40;99.90
6008;DHT22;3032;49.484;11.112;2022-08-21T06:40:57;20.40;99.90
6008;DHT22;3032;49.484;11.112;2022-08-21T06:43:22;20.40;99.90
6008;DHT22;3032;49.484;11.112;2022-08-21T06:45:48;20.70;99.90
6008;DHT22;3032;49.484;11.112;2022-08-21T06:48:14;20.90;99.90
6008;DHT22;3032;49.484;11.112;2022-08-21T06:50:40;20.90;99.90
6008;DHT22;3032;49.484;11.112;2022-08-21T06:53:12;21.10;99.90
6008;DHT22;3032;49.484;11.112;2022-08-21T06:55:39;21.30;99.90
6008;DHT22;3032;49.484;11.112;2022-08-21T06:58:05;21.30;99.90
6008;DHT22;3032;49.484;11.112;2022-08-21T07:00:32;21.50;99.90
6008;DHT22;3032;49.484;11.112;2022-08-21T07:02:58;21.70;99.90
6008;DHT22;3032;49.484;11.112;2022-08-21T07:05:29;21.60;99.90
6008;DHT22;3032;49.484;11.112;2022-08-21T07:07:55;21.90;99.90
6008;DHT22;3032;49.484;11.112;2022-08-21T07:10:22;22.20;99.90
6008;DHT22;3032;49.484;11.112;2022-08-21T07:12:49;22.20;99.90
6008;DHT22;3032;49.484;11.112;2022-08-21T07:15:15;22.40;99.90
6008;DHT22;3032;49.484;11.112;2022-08-21T07:17:40;22.60;99.90
6008;DHT22;3032;49.484;11.112;2022-08-21T07:20:06;22.70;99.90
6008;DHT22;3032;49.484;11.112;2022-08-21T07:22:33;22.50;99.90
6008;DHT22;3032;49.484;11.112;2022-08-21T07:25:00;22.50;99.90
6008;DHT22;3032;49.484;11.112;2022-08-21T07:27:26;22.50;99.90
6008;DHT22;3032;49.484;11.112;2022-08-21T07:29:52;22.50;99.90
6008;DHT22;3032;49.484;11.112;2022-08-21T07:32:17;22.20;99.90
6008;DHT22;3032;49.484;11.112;2022-08-21T07:34:43;22.20;99.90
6008;DHT22;3032;49.484;11.112;2022-08-21T07:37:08;22.50;99.90
6008;DHT22;3032;49.484;11.112;2022-08-21T07:39:34;22.40;99.90
6008;DHT22;3032;49.484;11.112;2022-08-21T07:41:59;22.40;99.90
6008;DHT22;3032;49.484;11.112;2022-08-21T07:44:25;22.70;99.90
6008;DHT22;3032;49.484;11.112;2022-08-21T07:46:51;22.70;99.90
6008;DHT22;3032;49.484;11.112;2022-08-21T07:49:16;22.90;99.90
6008;DHT22;3032;49.484;11.112;2022-08-21T07:51:42;22.70;99.90
6008;DHT22;3032;49.484;11.112;2022-08-21T07:54:07;22.90;99.90
6008;DHT22;3032;49.484;11.112;2022-08-21T07:56:33;23.00;99.90
6008;DHT22;3032;49.484;11.112;2022-08-21T07:58:59;22.90;99.90
6008;DHT22;3032;49.484;11.112;2022-08-21T08:01:25;22.90;99.90
6008;DHT22;3032;49.484;11.112;2022-08-21T08:03:50;23.00;99.90
6008;DHT22;3032;49.484;11.112;2022-08-21T08:06:17;23.20;99.90
6008;DHT22;3032;49.484;11.112;2022-08-21T08:08:44;23.20;99.90
6008;DHT22;3032;49.484;11.112;2022-08-21T08:11:11;23.20;99.90
6008;DHT22;3032;49.484;11.112;2022-08-21T08:13:42;23.30;99.90
6008;DHT22;3032;49.484;11.112;2022-08-21T08:16:08;23.40;99.90
6008;DHT22;3032;49.484;11.112;2022-08-21T08:18:34;23.40;99.90
6008;DHT22;3032;49.484;11.112;2022-08-21T08:21:00;23.20;99.90
6008;DHT22;3032;49.484;11.112;2022-08-21T08:23:25;23.40;99.90
6008;DHT22;3032;49.484;11.112;2022-08-21T08:25:52;23.60;99.90
6008;DHT22;3032;49.484;11.112;2022-08-21T08:28:18;23.50;99.90
6008;DHT22;3032;49.484;11.112;2022-08-21T08:30:45;23.70;99.90
6008;DHT22;3032;49.484;11.112;2022-08-21T08:33:11;23.80;99.90
6008;DHT22;3032;49.484;11.112;2022-08-21T08:35:37;23.50;99.90
6008;DHT22;3032;49.484;11.112;2022-08-21T08:38:03;23.70;99.90
6008;DHT22;3032;49.484;11.112;2022-08-21T08:40:35;23.80;99.90
6008;DHT22;3032;49.484;11.112;2022-08-21T08:43:03;23.60;99.90
6008;DHT22;3032;49.484;11.112;2022-08-21T08:45:33;23.50;99.90
6008;DHT22;3032;49.484;11.112;2022-08-21T08:48:06;23.30;99.90
6008;DHT22;3032;49.484;11.112;2022-08-21T08:50:54;23.20;99.90
6008;DHT22;3032;49.484;11.112;2022-08-21T08:53:24;23.40;99.90
6008;DHT22;3032;49.484;11.112;2022-08-21T08:55:51;23.20;99.90
6008;DHT22;3032;49.484;11.112;2022-08-21T08:58:25;23.20;99.90
6008;DHT22;3032;49.484;11.112;2022-08-21T09:00:54;23.20;99.90
6008;DHT22;3032;49.484;11.112;2022-08-21T09:03:22;23.60;99.90
6008;DHT22;3032;49.484;11.112;2022-08-21T09:11:09;24.40;99.90
6008;DHT22;3032;49.484;11.112;2022-08-21T09:14:00;24.40;99.90
6008;DHT22;3032;49.484;11.112;2022-08-21T09:19:36;24.30;99.90
6008;DHT22;3032;49.484;11.112;2022-08-21T09:22:30;24.50;99.90
6008;DHT22;3032;49.484;11.112;2022-08-21T09:27:49;24.80;99.90
6008;DHT22;3032;49.484;11.112;2022-08-21T09:30:16;25.00;99.90
6008;DHT22;3032;49.484;11.112;2022-08-21T09:32:43;25.10;99.90
6008;DHT22;3032;49.484;11.112;2022-08-21T09:35:16;25.20;99.90
6008;DHT22;3032;49.484;11.112;2022-08-21T09:37:55;25.20;99.90
6008;DHT22;3032;49.484;11.112;2022-08-21T09:40:30;24.90;99.90
6008;DHT22;3032;49.484;11.112;2022-08-21T09:43:00;25.10;99.90
6008;DHT22;3032;49.484;11.112;2022-08-21T09:45:27;25.00;99.90
6008;DHT22;3032;49.484;11.112;2022-08-21T09:47:53;25.10;99.90
6008;DHT22;3032;49.484;11.112;2022-08-21T09:50:25;25.20;99.90
6008;DHT22;3032;49.484;11.112;2022-08-21T09:52:55;25.70;99.90
6008;DHT22;3032;49.484;11.112;2022-08-21T09:58:18;26.80;99.90
6008;DHT22;3032;49.484;11.112;2022-08-21T10:00:45;27.20;99.90
6008;DHT22;3032;49.484;11.112;2022-08-21T10:03:21;27.50;99.90
6008;DHT22;3032;49.484;11.112;2022-08-21T10:06:08;27.90;99.90
6008;DHT22;3032;49.484;11.112;2022-08-21T10:08:38;28.30;99.90
6008;DHT22;3032;49.484;11.112;2022-08-21T10:11:09;28.90;99.90
6008;DHT22;3032;49.484;11.112;2022-08-21T10:25:19;33.90;94.80
6008;DHT22;3032;49.484;11.112;2022-08-21T10:27:47;34.40;93.50
6008;DHT22;3032;49.484;11.112;2022-08-21T10:36:24;34.50;90.60
6008;DHT22;3032;49.484;11.112;2022-08-21T10:38:59;33.40;91.00
6008;DHT22;3032;49.484;11.112;2022-08-21T10:41:56;32.40;93.10
6008;DHT22;3032;49.484;11.112;2022-08-21T10:50:31;34.90;89.10
6008;DHT22;3032;49.484;11.112;2022-08-21T10:55:48;36.30;83.80
6008;DHT22;3032;49.484;11.112;2022-08-21T10:58:25;36.50;81.10
6008;DHT22;3032;49.484;11.112;2022-08-21T11:01:00;36.10;81.60
6008;DHT22;3032;49.484;11.112;2022-08-21T11:03:34;36.10;80.80
6008;DHT22;3032;49.484;11.112;2022-08-21T11:06:24;36.70;79.30
6008;DHT22;3032;49.484;11.112;2022-08-21T11:08:54;36.60;78.10
6008;DHT22;3032;49.484;11.112;2022-08-21T11:14:28;37.90;73.00
6008;DHT22;3032;49.484;11.112;2022-08-21T11:17:09;38.00;75.80
6008;DHT22;3032;49.484;11.112;2022-08-21T11:22:28;38.10;68.10
6008;DHT22;3032;49.484;11.112;2022-08-21T11:24:58;38.10;68.10
6008;DHT22;3032;49.484;11.112;2022-08-21T11:27:38;37.70;70.70
6008;DHT22;3032;49.484;11.112;2022-08-21T11:30:08;38.70;69.50
6008;DHT22;3032;49.484;11.112;2022-08-21T11:35:53;39.10;65.30
6008;DHT22;3032;49.484;11.112;2022-08-21T11:38:39;39.40;65.30
6008;DHT22;3032;49.484;11.112;2022-08-21T11:41:28;40.00;63.30
6008;DHT22;3032;49.484;11.112;2022-08-21T11:47:13;40.00;59.90
6008;DHT22;3032;49.484;11.112;2022-08-21T11:52:23;39.20;60.30
6008;DHT22;3032;49.484;11.112;2022-08-21T12:00:16;37.40;62.80
6008;DHT22;3032;49.484;11.112;2022-08-21T12:02:53;36.10;63.90
6008;DHT22;3032;49.484;11.112;2022-08-21T12:05:39;34.90;66.20
6008;DHT22;3032;49.484;11.112;2022-08-21T12:08:12;34.20;67.20
6008;DHT22;3032;49.484;11.112;2022-08-21T12:10:45;33.50;69.70
6008;DHT22;3032;49.484;11.112;2022-08-21T12:13:33;32.80;69.00
6008;DHT22;3032;49.484;11.112;2022-08-21T12:18:32;31.20;71.40
6008;DHT22;3032;49.484;11.112;2022-08-21T12:31:57;34.40;63.50
6008;DHT22;3032;49.484;11.112;2022-08-21T12:34:40;34.80;61.50
6008;DHT22;3032;49.484;11.112;2022-08-21T12:37:30;34.80;60.50
6008;DHT22;3032;49.484;11.112;2022-08-21T12:39:59;33.60;62.70
6008;DHT22;3032;49.484;11.112;2022-08-21T12:45:02;32.90;65.30
6008;DHT22;3032;49.484;11.112;2022-08-21T12:47:36;33.30;67.30
6008;DHT22;3032;49.484;11.112;2022-08-21T12:50:16;33.90;65.70
6008;DHT22;3032;49.484;11.112;2022-08-21T12:52:59;34.00;63.20
6008;DHT22;3032;49.484;11.112;2022-08-21T12:55:32;33.80;61.00
6008;DHT22;3032;49.484;11.112;2022-08-21T12:57:58;33.80;63.90
6008;DHT22;3032;49.484;11.112;2022-08-21T13:00:26;33.90;64.20
6008;DHT22;3032;49.484;11.112;2022-08-21T13:02:53;34.00;63.20
6008;DHT22;3032;49.484;11.112;2022-08-21T13:05:32;33.40;63.80
6008;DHT22;3032;49.484;11.112;2022-08-21T13:08:02;33.70;65.40
6008;DHT22;3032;49.484;11.112;2022-08-21T13:10:31;34.30;62.50
6008;DHT22;3032;49.484;11.112;2022-08-21T13:12:59;35.00;62.10
6008;DHT22;3032;49.484;11.112;2022-08-21T13:15:30;35.60;61.40
6008;DHT22;3032;49.484;11.112;2022-08-21T13:17:56;36.20;60.50
6008;DHT22;3032;49.484;11.112;2022-08-21T13:20:36;36.40;59.20
6008;DHT22;3032;49.484;11.112;2022-08-21T13:23:07;35.90;58.50
6008;DHT22;3032;49.484;11.112;2022-08-21T13:25:38;35.20;59.80
6008;DHT22;3032;49.484;11.112;2022-08-21T13:28:07;34.60;62.20
6008;DHT22;3032;49.484;11.112;2022-08-21T13:30:34;34.50;61.10
6008;DHT22;3032;49.484;11.112;2022-08-21T13:33:05;34.60;59.90
6008;DHT22;3032;49.484;11.112;2022-08-21T13:38:29;34.00;62.40
6008;DHT22;3032;49.484;11.112;2022-08-21T13:41:00;34.30;60.00
6008;DHT22;3032;49.484;11.112;2022-08-21T13:43:31;34.90;61.10
6008;DHT22;3032;49.484;11.112;2022-08-21T13:45:57;35.60;58.00
6008;DHT22;3032;49.484;11.112;2022-08-21T13:48:26;36.00;58.20
6008;DHT22;3032;49.484;11.112;2022-08-21T13:50:54;36.60;57.00
6008;DHT22;3032;49.484;11.112;2022-08-21T13:55:47;36.90;56.20
6008;DHT22;3032;49.484;11.112;2022-08-21T13:58:27;36.60;56.50
6008;DHT22;3032;49.484;11.112;2022-08-21T14:00:54;36.60;56.00
6008;DHT22;3032;49.484;11.112;2022-08-21T14:03:35;36.70;55.20
6008;DHT22;3032;49.484;11.112;2022-08-21T14:06:03;36.30;56.10
6008;DHT22;3032;49.484;11.112;2022-08-21T14:08:38;36.40;54.50
6008;DHT22;3032;49.484;11.112;2022-08-21T14:11:05;36.80;55.60
6008;DHT22;3032;49.484;11.112;2022-08-21T14:13:55;37.00;55.10
6008;DHT22;3032;49.484;11.112;2022-08-21T14:16:27;37.30;55.10
6008;DHT22;3032;49.484;11.112;2022-08-21T14:19:35;37.30;54.10
6008;DHT22;3032;49.484;11.112;2022-08-21T14:21:53;37.50;53.80
6008;DHT22;3032;49.484;11.112;2022-08-21T14:26:52;37.00;54.40
6008;DHT22;3032;49.484;11.112;2022-08-21T14:29:19;37.20;54.30
6008;DHT22;3032;49.484;11.112;2022-08-21T14:31:57;36.80;53.70
6008;DHT22;3032;49.484;11.112;2022-08-21T14:34:27;36.90;54.00
6008;DHT22;3032;49.484;11.112;2022-08-21T14:36:55;36.60;53.10
6008;DHT22;3032;49.484;11.112;2022-08-21T14:39:21;36.50;54.00
6008;DHT22;3032;49.484;11.112;2022-08-21T14:41:48;36.40;55.20
6008;DHT22;3032;49.484;11.112;2022-08-21T14:44:15;36.60;53.60
6008;DHT22;3032;49.484;11.112;2022-08-21T14:46:41;35.60;54.20
6008;DHT22;3032;49.484;11.112;2022-08-21T14:49:07;35.60;55.50
6008;DHT22;3032;49.484;11.112;2022-08-21T14:51:33;35.70;54.70
6008;DHT22;3032;49.484;11.112;2022-08-21T14:53:58;35.70;54.60
6008;DHT22;3032;49.484;11.112;2022-08-21T14:56:24;35.70;55.50
6008;DHT22;3032;49.484;11.112;2022-08-21T14:58:51;36.00;55.00
6008;DHT22;3032;49.484;11.112;2022-08-21T15:01:20;35.90;53.40
6008;DHT22;3032;49.484;11.112;2022-08-21T15:03:46;34.80;54.50
6008;DHT22;3032;49.484;11.112;2022-08-21T15:06:14;33.90;55.10
6008;DHT22;3032;49.484;11.112;2022-08-21T15:08:40;33.30;56.80
6008;DHT22;3032;49.484;11.112;2022-08-21T15:11:06;33.10;57.40
6008;DHT22;3032;49.484;11.112;2022-08-21T15:13:33;33.10;57.20
6008;DHT22;3032;49.484;11.112;2022-08-21T15:15:59;32.70;57.40
6008;DHT22;3032;49.484;11.112;2022-08-21T15:18:26;32.30;57.70
6008;DHT22;3032;49.484;11.112;2022-08-21T15:20:52;32.00;57.10
6008;DHT22;3032;49.484;11.112;2022-08-21T15:23:18;31.80;56.70
6008;DHT22;3032;49.484;11.112;2022-08-21T15:25:46;31.40;56.50
6008;DHT22;3032;49.484;11.112;2022-08-21T15:28:13;31.40;59.00
6008;DHT22;3032;49.484;11.112;2022-08-21T15:30:40;31.10;58.80
6008;DHT22;3032;49.484;11.112;2022-08-21T15:33:07;30.80;58.90
6008;DHT22;3032;49.484;11.112;2022-08-21T15:35:33;30.80;58.60
6008;DHT22;3032;49.484;11.112;2022-08-21T15:37:59;30.60;58.50
6008;DHT22;3032;49.484;11.112;2022-08-21T15:40:25;30.40;58.90
6008;DHT22;3032;49.484;11.112;2022-08-21T15:42:57;30.30;58.80
6008;DHT22;3032;49.484;11.112;2022-08-21T15:45:24;30.10;58.10
6008;DHT22;3032;49.484;11.112;2022-08-21T15:47:50;30.20;57.90
6008;DHT22;3032;49.484;11.112;2022-08-21T15:50:16;30.00;58.90
6008;DHT22;3032;49.484;11.112;2022-08-21T15:52:42;29.80;59.90
6008;DHT22;3032;49.484;11.112;2022-08-21T15:55:09;29.60;60.00
6008;DHT22;3032;49.484;11.112;2022-08-21T15:57:35;29.60;58.80
6008;DHT22;3032;49.484;11.112;2022-08-21T16:00:12;29.60;58.70
6008;DHT22;3032;49.484;11.112;2022-08-21T16:02:40;29.60;58.60
6008;DHT22;3032;49.484;11.112;2022-08-21T16:05:10;29.60;59.10
6008;DHT22;3032;49.484;11.112;2022-08-21T16:07:37;29.50;58.10
6008;DHT22;3032;49.484;11.112;2022-08-21T16:10:04;29.40;57.20
6008;DHT22;3032;49.484;11.112;2022-08-21T16:12:32;29.50;57.40
6008;DHT22;3032;49.484;11.112;2022-08-21T16:14:59;29.80;57.80
6008;DHT22;3032;49.484;11.112;2022-08-21T16:17:29;29.20;58.70
6008;DHT22;3032;49.484;11.112;2022-08-21T16:19:56;28.90;58.90
6008;DHT22;3032;49.484;11.112;2022-08-21T16:22:22;28.90;59.90
6008;DHT22;3032;49.484;11.112;2022-08-21T16:24:48;29.20;59.40
6008;DHT22;3032;49.484;11.112;2022-08-21T16:27:13;29.30;59.50
6008;DHT22;3032;49.484;11.112;2022-08-21T16:29:41;29.50;58.90
6008;DHT22;3032;49.484;11.112;2022-08-21T16:32:07;29.60;58.10
6008;DHT22;3032;49.484;11.112;2022-08-21T16:34:34;29.70;58.90
6008;DHT22;3032;49.484;11.112;2022-08-21T16:36:59;29.80;58.50
6008;DHT22;3032;49.484;11.112;2022-08-21T16:39:25;29.80;57.70
6008;DHT22;3032;49.484;11.112;2022-08-21T16:41:51;29.80;57.40
6008;DHT22;3032;49.484;11.112;2022-08-21T16:44:18;29.70;58.40
6008;DHT22;3032;49.484;11.112;2022-08-21T16:46:44;29.70;60.00
6008;DHT22;3032;49.484;11.112;2022-08-21T16:49:09;29.50;59.30
6008;DHT22;3032;49.484;11.112;2022-08-21T16:51:36;29.40;59.50
6008;DHT22;3032;49.484;11.112;2022-08-21T16:54:02;29.30;58.10
6008;DHT22;3032;49.484;11.112;2022-08-21T16:56:29;29.10;58.00
6008;DHT22;3032;49.484;11.112;2022-08-21T16:58:56;29.00;58.20
6008;DHT22;3032;49.484;11.112;2022-08-21T17:01:25;28.80;58.40
6008;DHT22;3032;49.484;11.112;2022-08-21T17:03:52;28.70;59.10
6008;DHT22;3032;49.484;11.112;2022-08-21T17:06:20;28.50;58.90
6008;DHT22;3032;49.484;11.112;2022-08-21T17:08:47;28.50;58.60
6008;DHT22;3032;49.484;11.112;2022-08-21T17:11:26;28.50;58.70
6008;DHT22;3032;49.484;11.112;2022-08-21T17:13:53;28.60;58.10
6008;DHT22;3032;49.484;11.112;2022-08-21T17:16:19;28.40;58.20
6008;DHT22;3032;49.484;11.112;2022-08-21T17:18:45;28.50;58.60
6008;DHT22;3032;49.484;11.112;2022-08-21T17:21:12;28.40;58.60